Flight Track Log - Related Links

Times and Time Zones

All times are in EDT time to prevent confusion due to time zone crossing. See the TAM3001 flight status page for this flight to view local times or setup timezone preferences in your user account.

Time Position Orientation Groundspeed Altitude Reporting Facility
EDT Latitude Longitude Course Direction KTS MPH feet Rate Location/Type
06:13AM -23.6369 -46.6494 147° Southeast 145 167 2,900  Level FlightAware ADS-B (SBSP / CGH)
06:14AM -23.6459 -46.6432 148° Southeast 151 174 3,400 1,385 Climbing FlightAware ADS-B (SBSP / CGH)
06:14AM -23.6518 -46.6395 154° Southeast 164 189 3,500 857 Climbing FlightAware ADS-B (SBSP / CGH)
06:14AM -23.6558 -46.6379 164° South 170 196 3,600 1,333 Climbing FlightAware ADS-B (SBSP / CGH)
06:14AM -23.6590 -46.6372 171° South 174 200 3,700 545 Climbing FlightAware ADS-B (SBSP / CGH)
06:14AM -23.6640 -46.6368 178° South 183 211 3,700  Level FlightAware ADS-B (SBSP / CGH)
06:14AM -23.6681 -46.6370 185° South 189 217 3,700 600 Level FlightAware ADS-B (SBSP / CGH)
06:14AM -23.6724 -46.6379 192° South 196 226 3,800 1,091 Climbing FlightAware ADS-B (SBSP / CGH)
06:14AM -23.6770 -46.6395 201° Southwest 204 235 3,900 667 Climbing FlightAware ADS-B (SBSP / CGH)
06:14AM -23.6816 -46.6416 207° Southwest 211 243 3,900 667 Level FlightAware ADS-B (SBSP / CGH)
06:14AM -23.6860 -46.6444 213° Southwest 217 250 4,000 1,200 Climbing FlightAware ADS-B (SBSP / CGH)
06:15AM -23.6901 -46.6477 218° Southwest 222 255 4,100 600 Climbing FlightAware ADS-B (SBSP / CGH)
06:15AM -23.6939 -46.6514 223° Southwest 232 267 4,100 600 Level FlightAware ADS-B (SBSP / CGH)
06:15AM -23.6979 -46.6560 229° Southwest 241 277 4,200 1,200 Climbing FlightAware ADS-B (SBSP / CGH)
06:15AM -23.7082 -46.6710 237° Southwest 262 302 4,500 1,800 Climbing FlightAware ADS-B (SBSP / CGH)
06:15AM -23.7182 -46.6887 240° Southwest 276 318 5,100 2,000 Climbing FlightAware ADS-B (SBSP / CGH)
06:15AM -23.7280 -46.7067 240° Southwest 274 315 5,500 1,400 Climbing FlightAware ADS-B (SBSP / CGH)
06:16AM -23.7377 -46.7239 238° Southwest 272 313 5,800 514 Climbing FlightAware ADS-B (SBSP / CGH)
06:16AM -23.7516 -46.7471 237° Southwest 272 313 5,800 500 Level FlightAware ADS-B (SBSP / CGH)
06:16AM -23.7624 -46.7646 236° Southwest 272 313 6,100 1,400 Climbing FlightAware ADS-B (SBSP / CGH)
06:17AM -23.7726 -46.7811 236° Southwest 276 318 6,500 1,400 Climbing FlightAware ADS-B (SBSP / CGH)
06:17AM -23.7841 -46.7993 236° Southwest 273 314 6,800 1,400 Climbing FlightAware ADS-B (SBSP / CGH)
06:17AM -23.7945 -46.8157 236° Southwest 270 311 7,200 2,069 Climbing FlightAware ADS-B (SBSP / CGH)
06:17AM -23.8049 -46.8324 236° Southwest 275 316 7,800 2,600 Climbing FlightAware ADS-B (SBSP / CGH)
06:18AM -23.8161 -46.8502 236° Southwest 276 318 8,500 2,880 Climbing FlightAware ADS-B (SBSP / CGH)
06:18AM -23.8228 -46.8621 241° Southwest 276 318 9,000 2,625 Climbing FlightAware ADS-B (SBSP / CGH)
06:18AM -23.8259 -46.8686 245° Southwest 276 318 9,200 2,400 Climbing FlightAware ADS-B (SBSP / CGH)
06:18AM -23.8339 -46.8875 246° West 279 321 9,800 1,959 Climbing FlightAware ADS-B (SBSP / CGH)
06:19AM -23.8523 -46.9325 247° West 301 346 10,800 1,418 Climbing FlightAware ADS-B (SDAM)
06:19AM -23.8647 -46.9631 246° West 324 373 11,100 1,320 Climbing FlightAware ADS-B (SBSP / CGH)
06:19AM -23.8840 -47.0095 246° West 341 392 11,900 1,900 Climbing FlightAware ADS-B (SBSP / CGH)
06:20AM -23.9037 -47.0567 246° West 343 395 13,000 2,100 Climbing FlightAware ADS-B (SBSP / CGH)
06:20AM -23.9235 -47.1043 246° West 351 404 14,000 2,229 Climbing FlightAware ADS-B (SBSP / CGH)
06:21AM -23.9478 -47.1627 246° West 349 402 15,600 2,082 Climbing FlightAware ADS-B (SDAM)
06:21AM -23.9563 -47.1824 246° West 350 403 15,700 1,600 Climbing FlightAware ADS-B (SBSP / CGH)
06:22AM -24.0075 -47.2582 233° Southwest 374 430 17,200 1,737 Climbing FlightAware ADS-B (SDAM)
06:23AM -24.0345 -47.2965 239° Southwest 363 418 17,900 1,765 Climbing FlightAware ADS-B (SBSP / CGH)
06:23AM -24.0593 -47.3315 233° Southwest 381 438 18,700 1,781 Climbing FlightAware ADS-B (SBSP / CGH)
06:24AM -24.1048 -47.3958 233° Southwest 387 445 19,800 1,588 Climbing FlightAware ADS-B (SDAM)
06:24AM -24.1380 -47.4429 233° Southwest 394 453 20,500 1,400 Climbing FlightAware ADS-B (SDAM)
06:25AM -24.1720 -47.4912 233° Southwest 401 461 21,200 1,869 Climbing FlightAware ADS-B (SDAM)
06:25AM -24.2060 -47.5395 233° Southwest 393 452 22,400 2,400 Climbing FlightAware ADS-B (SDAM)
06:26AM -24.2386 -47.5857 233° Southwest 387 445 23,600 1,970 Climbing FlightAware ADS-B (SDAM)
06:26AM -24.2797 -47.6446 233° Southwest 391 450 24,600 1,701 Climbing FlightAware ADS-B (SBBI / BFH)
06:27AM -24.3120 -47.6905 233° Southwest 389 448 25,500 1,400 Climbing FlightAware ADS-B (SBBI / BFH)
06:27AM -24.3458 -47.7387 233° Southwest 391 450 26,000 492 Climbing FlightAware ADS-B (SBBI / BFH)
06:28AM -24.3782 -47.7850 233° Southwest 383 441 26,000  Level FlightAware ADS-B (SBBI / BFH)
06:28AM -24.4095 -47.8298 233° Southwest 383 441 26,000  Level FlightAware ADS-B (SBBI / BFH)
06:29AM -24.4429 -47.8778 233° Southwest 388 447 26,000  Level FlightAware ADS-B (SBBI / BFH)
06:29AM -24.4745 -47.9230 233° Southwest 391 450 26,000  Level FlightAware ADS-B (SBBI / BFH)
06:30AM -24.5100 -47.9738 233° Southwest 392 451 26,000  Level FlightAware ADS-B (SBBI / BFH)
06:30AM -24.5426 -48.0206 233° Southwest 392 451 26,000  Level FlightAware ADS-B (SBBI / BFH)
06:31AM -24.5747 -48.0666 233° Southwest 391 450 26,000  Level FlightAware ADS-B (SBBI / BFH)
06:31AM -24.6072 -48.1131 233° Southwest 391 450 26,000  Level FlightAware ADS-B (SBBI / BFH)
06:32AM -24.6404 -48.1609 233° Southwest 389 448 26,000  Level FlightAware ADS-B (SBBI / BFH)
06:32AM -24.6729 -48.2079 233° Southwest 389 448 26,000  Level FlightAware ADS-B (SBBI / BFH)
06:33AM -24.7066 -48.2565 233° Southwest 389 448 26,000  Level FlightAware ADS-B (SBBI / BFH)
06:33AM -24.7397 -48.3042 233° Southwest 389 448 26,000  Level FlightAware ADS-B (SBBI / BFH)
06:34AM -24.7729 -48.3524 233° Southwest 389 448 26,000 -500 Level FlightAware ADS-B (SBBI / BFH)
06:34AM -24.8049 -48.3987 234° Southwest 394 453 25,500 -1,966 Descending FlightAware ADS-B (SBBI / BFH)
06:35AM -24.8378 -48.4465 233° Southwest 401 461 24,100 -2,500 Descending FlightAware ADS-B (SBBI / BFH)
06:35AM -24.8722 -48.4961 233° Southwest 389 448 23,000 -2,100 Descending FlightAware ADS-B (SBBI / BFH)
06:36AM -24.9035 -48.5412 233° Southwest 379 436 22,000 -1,831 Descending FlightAware ADS-B (SBBI / BFH)
06:36AM -24.9348 -48.5865 233° Southwest 363 418 21,200 -1,800 Descending FlightAware ADS-B (SBBI / BFH)
06:37AM -24.9641 -48.6292 234° Southwest 353 406 20,200 -1,700 Descending FlightAware ADS-B (SBBI / BFH)
06:37AM -24.9931 -48.6714 234° Southwest 342 394 19,500 -1,574 Descending FlightAware ADS-B (SBBI / BFH)
06:38AM -25.0176 -48.7176 256° West 324 373 18,600 -2,053 Descending FlightAware ADS-B (SBBI / BFH)
06:38AM -25.0199 -48.7280 257° West 320 368 18,200 -1,448 Descending FlightAware ADS-B
06:38AM -25.0274 -48.7628 257° West 318 366 17,900 -1,269 Descending FlightAware ADS-B (SBBI / BFH)
06:39AM -25.0382 -48.8099 256° West 315 362 17,100 -1,672 Descending FlightAware ADS-B (SBBI / BFH)
06:39AM -25.0492 -48.8575 256° West 313 360 16,200 -1,672 Descending FlightAware ADS-B (SBBI / BFH)
06:40AM -25.0602 -48.9057 256° West 313 360 15,400 -1,698 Descending FlightAware ADS-B (SBBI / BFH)
06:40AM -25.0681 -48.9405 256° West 313 360 14,700 -1,600 Descending FlightAware ADS-B
06:40AM -25.0704 -48.9507 257° West 313 360 14,600 -1,636 Descending FlightAware ADS-B (SBBI / BFH)
06:41AM -25.0790 -48.9891 256° West 313 360 13,800 -1,800 Descending FlightAware ADS-B
06:41AM -25.0807 -48.9966 257° West 312 359 13,700 -1,588 Descending FlightAware ADS-B (SBBI / BFH)
06:41AM -25.0914 -49.0442 256° West 311 358 12,900 -1,622 Descending FlightAware ADS-B (SBBI / BFH)
06:41AM -25.0936 -49.0539 256° West 311 358 12,700 -1,800 Descending FlightAware ADS-B
06:42AM -25.1019 -49.0900 256° West 311 358 12,000 -2,154 Descending FlightAware ADS-B (SBBI / BFH)
06:42AM -25.1104 -49.1131 238° Southwest 321 369 11,300 -2,700 Descending FlightAware ADS-B
06:42AM -25.1140 -49.1184 232° Southwest 323 372 11,100 -1,818 Descending FlightAware ADS-B (SBBI / BFH)
06:43AM -25.1435 -49.1552 228° Southwest 322 371 10,300 -1,459 Descending FlightAware ADS-B (SBBI / BFH)
06:43AM -25.1466 -49.1592 228° Southwest 317 365 10,200 -900 Descending FlightAware ADS-B
06:43AM -25.1629 -49.1786 228° Southwest 309 356 10,000 -857 Descending FlightAware ADS-B (SBBI / BFH)
06:43AM -25.1700 -49.1874 228° Southwest 302 348 9,900 -800 Descending FlightAware ADS-B
06:43AM -25.1768 -49.1956 229° Southwest 298 343 9,800 -1,200 Descending FlightAware ADS-B (SBBI / BFH)
06:43AM -25.1867 -49.2078 228° Southwest 290 334 9,500 -1,125 Descending FlightAware ADS-B
06:43AM -25.1912 -49.2133 229° Southwest 289 333 9,500 -1,412 Level FlightAware ADS-B (SBBI / BFH)
06:44AM -25.2044 -49.2297 229° Southwest 286 329 9,100 -1,579 Descending FlightAware ADS-B (SBBI / BFH)
06:44AM -25.2053 -49.2309 229° Southwest 286 329 9,000 -1,600 Descending FlightAware ADS-B
06:44AM -25.2174 -49.2461 229° Southwest 284 327 8,700 -1,714 Descending FlightAware ADS-B (SBBI / BFH)
06:44AM -25.2222 -49.2520 229° Southwest 284 327 8,400 -1,600 Descending FlightAware ADS-B
06:44AM -25.2307 -49.2626 229° Southwest 284 327 8,300 -1,895 Descending FlightAware ADS-B (SBBI / BFH)
06:44AM -25.2407 -49.2752 229° Southwest 285 328 7,800 -1,800 Descending FlightAware ADS-B
06:45AM -25.2569 -49.2957 229° Southwest 286 329 7,400 -1,714 Descending FlightAware ADS-B (SBBI / BFH)
06:45AM -25.2609 -49.3007 229° Southwest 286 329 7,200 -1,286 Descending FlightAware ADS-B
06:45AM -25.2688 -49.3106 229° Southwest 282 325 7,100 -480 Descending FlightAware ADS-B (SBBI / BFH)
06:45AM -25.2829 -49.3282 229° Southwest 272 313 7,000 -171 Descending FlightAware ADS-B (SBBI / BFH)
06:45AM -25.2973 -49.3460 229° Southwest 252 290 7,000  Level FlightAware ADS-B (SBBI / BFH)
06:46AM -25.3098 -49.3616 229° Southwest 243 280 7,000 -231 Level FlightAware ADS-B (SBBI / BFH)
06:46AM -25.3178 -49.3706 223° Southwest 240 276 6,900 -800 Descending FlightAware ADS-B (SBBI / BFH)
06:46AM -25.3228 -49.3741 210° Southwest 242 278 6,800 -1,200 Descending FlightAware ADS-B (SBBI / BFH)
06:46AM -25.3280 -49.3761 197° South 242 278 6,700 -750 Descending FlightAware ADS-B (SBBI / BFH)
06:46AM -25.3321 -49.3768 189° South 242 278 6,700 -667 Level FlightAware ADS-B (SBBI / BFH)
06:46AM -25.3371 -49.3766 173° South 242 278 6,600 -1,091 Descending FlightAware ADS-B (SBBI / BFH)
06:46AM -25.3430 -49.3753 164° South 240 276 6,500 -600 Descending FlightAware ADS-B (SBBI / BFH)
06:46AM -25.3480 -49.3731 154° Southeast 238 274 6,500 -500 Level FlightAware ADS-B (SBBI / BFH)
06:47AM -25.3547 -49.3685 143° Southeast 235 270 6,400 -900 Descending FlightAware ADS-B (SBBI / BFH)
06:47AM -25.3657 -49.3576 135° Southeast 228 262 6,200 -545 Descending FlightAware ADS-B (SBBI / BFH)
06:47AM -25.3801 -49.3416 134° Southeast 213 245 6,100 -333 Descending FlightAware ADS-B (SBBI / BFH)
06:47AM -25.3909 -49.3296 134° Southeast 198 228 6,000 -581 Descending FlightAware ADS-B (SBBI / BFH)
06:48AM -25.4001 -49.3193 134° Southeast 186 214 5,800 -800 Descending FlightAware ADS-B (SBBI / BFH)
06:48AM -25.4087 -49.3097 135° Southeast 172 198 5,600 -750 Descending FlightAware ADS-B (SBBI / BFH)
06:48AM -25.4138 -49.3039 134° Southeast 167 192 5,500 -800 Descending FlightAware ADS-B
06:48AM -25.4170 -49.3003 134° Southeast 164 189 5,400 -632 Descending FlightAware ADS-B (SBBI / BFH)
06:48AM -25.4224 -49.2943 135° Southeast 162 186 5,300 -300 Descending FlightAware ADS-B
06:48AM -25.4274 -49.2887 134° Southeast 163 188 5,300 -545 Level FlightAware ADS-B (SBBI / BFH)
06:49AM -25.4348 -49.2806 135° Southeast 168 193 5,100 -828 Descending FlightAware ADS-B
06:49AM -25.4428 -49.2716 134° Southeast 163 188 4,900 -818 Descending FlightAware ADS-B (SBBI / BFH)
06:49AM -25.4467 -49.2673 135° Southeast 162 186 4,800 -800 Descending FlightAware ADS-B
06:49AM -25.4510 -49.2625 134° Southeast 160 184 4,700 -667 Descending FlightAware ADS-B (SBBI / BFH)
06:49AM -25.4568 -49.2560 135° Southeast 154 177 4,600 -800 Descending FlightAware ADS-B
06:49AM -25.4588 -49.2538 134° Southeast 150 173 4,500 -947 Descending FlightAware ADS-B (SBBI / BFH)
06:50AM -25.4657 -49.2460 134° Southeast 144 166 4,300 -667 Descending FlightAware ADS-B (SBBI / BFH)
06:50AM -25.4666 -49.2450 134° Southeast 143 165 4,300 -800 Level FlightAware ADS-B
06:50AM -25.4726 -49.2383 134° Southeast 141 162 4,100 -947 Descending FlightAware ADS-B (SBBI / BFH)
06:50AM -25.4760 -49.2345 134° Southeast 140 161 4,000 -800 Descending FlightAware ADS-B
06:50AM -25.4795 -49.2306 134° Southeast 140 161 3,900 -706 Descending FlightAware ADS-B (SBBI / BFH)
06:50AM -25.4839 -49.2257 134° Southeast 141 162 3,800 -800 Descending FlightAware ADS-B
06:50AM -25.4863 -49.2229 134° Southeast 142 163 3,700 -545 Descending FlightAware ADS-B (SBBI / BFH)
06:51AM -25.4936 -49.2148 134° Southeast 142 163 3,600 -692 Descending FlightAware ADS-B (SBBI / BFH)
06:51AM -25.4976 -49.2104 134° Southeast 141 162 3,400 -857 Descending FlightAware ADS-B
06:51AM -25.5006 -49.2070 134° Southeast 142 163 3,400 -600 Level FlightAware ADS-B (SBBI / BFH)
06:51AM -25.5077 -49.1991 134° Southeast 143 165 3,200 -774 Descending FlightAware ADS-B (SBBI / BFH)
06:51AM -25.5150 -49.1910 134° Southeast 142 163 3,000 -828 Descending FlightAware ADS-B (SBBI / BFH)
06:52AM -25.5214 -49.1837 134° Southeast 141 162 2,800 -643 Descending FlightAware ADS-B (SBBI / BFH)
06:52AM -25.5265 -49.1781 134° Southeast 140 161 2,700 -429 Descending FlightAware ADS-B (SBBI / BFH)

Login

Don't have an account? Register now (free) for customized features, flight alerts, and more!